sensor_id;sensor_type;location;lat;lon;timestamp;temperature;humidity
59041;DHT22;44825;53.200;6.448;2022-11-03T00:02:00;11.90;99.90
59041;DHT22;44825;53.200;6.448;2022-11-03T00:04:27;11.90;99.90
59041;DHT22;44825;53.200;6.448;2022-11-03T00:06:54;11.90;99.90
59041;DHT22;44825;53.200;6.448;2022-11-03T00:09:20;11.90;99.90
59041;DHT22;44825;53.200;6.448;2022-11-03T00:11:49;11.90;99.90
59041;DHT22;44825;53.200;6.448;2022-11-03T00:14:16;11.90;99.90
59041;DHT22;44825;53.200;6.448;2022-11-03T00:16:43;11.90;99.90
59041;DHT22;44825;53.200;6.448;2022-11-03T00:19:10;11.90;99.90
59041;DHT22;44825;53.200;6.448;2022-11-03T00:21:38;11.90;99.90
59041;DHT22;44825;53.200;6.448;2022-11-03T00:24:04;11.90;99.90
59041;DHT22;44825;53.200;6.448;2022-11-03T00:26:32;12.00;99.90
59041;DHT22;44825;53.200;6.448;2022-11-03T00:29:00;12.00;99.90
59041;DHT22;44825;53.200;6.448;2022-11-03T00:31:27;12.00;99.90
59041;DHT22;44825;53.200;6.448;2022-11-03T00:33:54;12.00;99.90
59041;DHT22;44825;53.200;6.448;2022-11-03T00:36:22;12.00;99.90
59041;DHT22;44825;53.200;6.448;2022-11-03T00:38:48;11.90;99.90
59041;DHT22;44825;53.200;6.448;2022-11-03T00:41:16;12.00;99.90
59041;DHT22;44825;53.200;6.448;2022-11-03T00:43:43;11.90;99.90
59041;DHT22;44825;53.200;6.448;2022-11-03T00:46:11;11.90;99.90
59041;DHT22;44825;53.200;6.448;2022-11-03T00:48:38;11.80;99.90
59041;DHT22;44825;53.200;6.448;2022-11-03T00:51:06;11.90;99.90
59041;DHT22;44825;53.200;6.448;2022-11-03T00:53:34;11.80;99.90
59041;DHT22;44825;53.200;6.448;2022-11-03T00:56:01;11.90;99.90
59041;DHT22;44825;53.200;6.448;2022-11-03T00:58:27;11.80;99.90
59041;DHT22;44825;53.200;6.448;2022-11-03T01:00:58;11.80;99.90
59041;DHT22;44825;53.200;6.448;2022-11-03T01:03:26;11.80;99.90
59041;DHT22;44825;53.200;6.448;2022-11-03T01:05:53;11.80;99.90
59041;DHT22;44825;53.200;6.448;2022-11-03T01:08:37;11.80;99.90
59041;DHT22;44825;53.200;6.448;2022-11-03T01:11:04;11.80;99.90
59041;DHT22;44825;53.200;6.448;2022-11-03T01:13:49;11.80;99.90
59041;DHT22;44825;53.200;6.448;2022-11-03T01:16:15;11.80;99.90
59041;DHT22;44825;53.200;6.448;2022-11-03T01:18:43;11.80;99.90
59041;DHT22;44825;53.200;6.448;2022-11-03T01:21:10;11.70;99.90
59041;DHT22;44825;53.200;6.448;2022-11-03T01:23:37;11.70;99.90
59041;DHT22;44825;53.200;6.448;2022-11-03T01:26:04;11.70;99.90
59041;DHT22;44825;53.200;6.448;2022-11-03T01:28:32;11.70;99.90
59041;DHT22;44825;53.200;6.448;2022-11-03T01:31:01;11.70;99.90
59041;DHT22;44825;53.200;6.448;2022-11-03T01:33:28;11.70;99.90
59041;DHT22;44825;53.200;6.448;2022-11-03T01:35:56;11.70;99.90
59041;DHT22;44825;53.200;6.448;2022-11-03T01:38:23;11.70;99.90
59041;DHT22;44825;53.200;6.448;2022-11-03T01:40:50;11.60;99.90
59041;DHT22;44825;53.200;6.448;2022-11-03T01:43:17;11.60;99.90
59041;DHT22;44825;53.200;6.448;2022-11-03T01:45:44;11.70;99.90
59041;DHT22;44825;53.200;6.448;2022-11-03T01:48:12;11.70;99.90
59041;DHT22;44825;53.200;6.448;2022-11-03T01:50:39;11.60;99.90
59041;DHT22;44825;53.200;6.448;2022-11-03T01:53:10;11.60;99.90
59041;DHT22;44825;53.200;6.448;2022-11-03T01:55:37;11.60;99.90
59041;DHT22;44825;53.200;6.448;2022-11-03T01:58:06;11.60;99.90
59041;DHT22;44825;53.200;6.448;2022-11-03T02:00:33;11.60;99.90
59041;DHT22;44825;53.200;6.448;2022-11-03T02:03:00;11.60;99.90
59041;DHT22;44825;53.200;6.448;2022-11-03T02:05:27;11.50;99.90
59041;DHT22;44825;53.200;6.448;2022-11-03T02:07:55;11.70;99.90
59041;DHT22;44825;53.200;6.448;2022-11-03T02:10:24;11.60;99.90
59041;DHT22;44825;53.200;6.448;2022-11-03T02:12:50;11.60;99.90
59041;DHT22;44825;53.200;6.448;2022-11-03T02:15:18;11.60;99.90
59041;DHT22;44825;53.200;6.448;2022-11-03T02:17:46;11.60;99.90
59041;DHT22;44825;53.200;6.448;2022-11-03T02:20:13;11.60;99.90
59041;DHT22;44825;53.200;6.448;2022-11-03T02:25:33;11.50;99.90
59041;DHT22;44825;53.200;6.448;2022-11-03T02:28:00;11.50;99.90
59041;DHT22;44825;53.200;6.448;2022-11-03T02:30:27;11.50;99.90
59041;DHT22;44825;53.200;6.448;2022-11-03T02:32:56;11.50;99.90
59041;DHT22;44825;53.200;6.448;2022-11-03T02:35:25;11.50;99.90
59041;DHT22;44825;53.200;6.448;2022-11-03T02:37:55;11.60;99.90
59041;DHT22;44825;53.200;6.448;2022-11-03T02:40:24;11.60;99.90
59041;DHT22;44825;53.200;6.448;2022-11-03T02:42:53;11.60;99.90
59041;DHT22;44825;53.200;6.448;2022-11-03T02:45:20;11.50;99.90
59041;DHT22;44825;53.200;6.448;2022-11-03T02:47:48;11.60;99.90
59041;DHT22;44825;53.200;6.448;2022-11-03T02:50:16;11.60;99.90
59041;DHT22;44825;53.200;6.448;2022-11-03T02:52:45;11.60;99.90
59041;DHT22;44825;53.200;6.448;2022-11-03T02:55:14;11.60;99.90
59041;DHT22;44825;53.200;6.448;2022-11-03T02:57:43;11.60;99.90
59041;DHT22;44825;53.200;6.448;2022-11-03T03:00:12;11.60;99.90
59041;DHT22;44825;53.200;6.448;2022-11-03T03:02:49;11.60;99.90
59041;DHT22;44825;53.200;6.448;2022-11-03T03:05:17;11.60;99.90
59041;DHT22;44825;53.200;6.448;2022-11-03T03:07:45;11.60;99.90
59041;DHT22;44825;53.200;6.448;2022-11-03T03:10:13;11.60;99.90
59041;DHT22;44825;53.200;6.448;2022-11-03T03:12:42;11.60;99.90
59041;DHT22;44825;53.200;6.448;2022-11-03T03:15:13;11.70;99.90
59041;DHT22;44825;53.200;6.448;2022-11-03T03:17:43;11.60;99.90
59041;DHT22;44825;53.200;6.448;2022-11-03T03:20:11;11.70;99.90
59041;DHT22;44825;53.200;6.448;2022-11-03T03:22:41;11.70;99.90
59041;DHT22;44825;53.200;6.448;2022-11-03T03:25:10;11.70;99.90
59041;DHT22;44825;53.200;6.448;2022-11-03T03:27:38;11.70;99.90
59041;DHT22;44825;53.200;6.448;2022-11-03T03:30:07;11.70;99.90
59041;DHT22;44825;53.200;6.448;2022-11-03T03:32:36;11.70;99.90
59041;DHT22;44825;53.200;6.448;2022-11-03T03:35:04;11.70;99.90
59041;DHT22;44825;53.200;6.448;2022-11-03T03:37:32;11.70;99.90
59041;DHT22;44825;53.200;6.448;2022-11-03T03:40:00;11.70;99.90
59041;DHT22;44825;53.200;6.448;2022-11-03T03:42:29;11.70;99.90
59041;DHT22;44825;53.200;6.448;2022-11-03T03:44:56;11.70;99.90
59041;DHT22;44825;53.200;6.448;2022-11-03T03:47:25;11.70;99.90
59041;DHT22;44825;53.200;6.448;2022-11-03T03:49:53;11.60;99.90
59041;DHT22;44825;53.200;6.448;2022-11-03T03:52:20;11.70;99.90
59041;DHT22;44825;53.200;6.448;2022-11-03T03:54:47;11.70;99.90
59041;DHT22;44825;53.200;6.448;2022-11-03T03:57:14;11.70;99.90
59041;DHT22;44825;53.200;6.448;2022-11-03T03:59:42;11.70;99.90
59041;DHT22;44825;53.200;6.448;2022-11-03T04:02:08;11.70;99.90
59041;DHT22;44825;53.200;6.448;2022-11-03T04:04:35;11.70;99.90
59041;DHT22;44825;53.200;6.448;2022-11-03T04:07:03;11.70;99.90
59041;DHT22;44825;53.200;6.448;2022-11-03T04:09:47;11.70;99.90
59041;DHT22;44825;53.200;6.448;2022-11-03T04:12:14;11.70;99.90
59041;DHT22;44825;53.200;6.448;2022-11-03T04:15:08;11.70;99.90
59041;DHT22;44825;53.200;6.448;2022-11-03T04:17:54;11.70;99.90
59041;DHT22;44825;53.200;6.448;2022-11-03T04:20:38;11.70;99.90
59041;DHT22;44825;53.200;6.448;2022-11-03T04:23:24;11.70;99.90
59041;DHT22;44825;53.200;6.448;2022-11-03T04:25:52;11.60;99.90
59041;DHT22;44825;53.200;6.448;2022-11-03T04:28:19;11.60;99.90
59041;DHT22;44825;53.200;6.448;2022-11-03T04:30:46;11.60;99.90
59041;DHT22;44825;53.200;6.448;2022-11-03T04:33:13;11.60;99.90
59041;DHT22;44825;53.200;6.448;2022-11-03T04:35:41;11.60;99.90
59041;DHT22;44825;53.200;6.448;2022-11-03T04:38:18;11.60;99.90
59041;DHT22;44825;53.200;6.448;2022-11-03T04:40:49;11.60;99.90
59041;DHT22;44825;53.200;6.448;2022-11-03T04:43:18;11.60;99.90
59041;DHT22;44825;53.200;6.448;2022-11-03T04:45:46;11.60;99.90
59041;DHT22;44825;53.200;6.448;2022-11-03T04:48:13;11.60;99.90
59041;DHT22;44825;53.200;6.448;2022-11-03T04:50:40;11.60;99.90
59041;DHT22;44825;53.200;6.448;2022-11-03T04:53:08;11.60;99.90
59041;DHT22;44825;53.200;6.448;2022-11-03T04:55:35;11.60;99.90
59041;DHT22;44825;53.200;6.448;2022-11-03T04:58:06;11.70;99.90
59041;DHT22;44825;53.200;6.448;2022-11-03T05:00:36;11.70;99.90
59041;DHT22;44825;53.200;6.448;2022-11-03T05:03:02;11.70;99.90
59041;DHT22;44825;53.200;6.448;2022-11-03T05:05:29;11.60;99.90
59041;DHT22;44825;53.200;6.448;2022-11-03T05:07:56;11.60;99.90
59041;DHT22;44825;53.200;6.448;2022-11-03T05:10:24;11.70;99.90
59041;DHT22;44825;53.200;6.448;2022-11-03T05:12:52;11.60;99.90
59041;DHT22;44825;53.200;6.448;2022-11-03T05:15:26;11.60;99.90
59041;DHT22;44825;53.200;6.448;2022-11-03T05:17:53;11.60;99.90
59041;DHT22;44825;53.200;6.448;2022-11-03T05:20:23;11.60;99.90
59041;DHT22;44825;53.200;6.448;2022-11-03T05:22:52;11.60;99.90
59041;DHT22;44825;53.200;6.448;2022-11-03T05:25:24;11.60;99.90
59041;DHT22;44825;53.200;6.448;2022-11-03T05:27:53;11.70;99.90
59041;DHT22;44825;53.200;6.448;2022-11-03T05:30:20;11.60;99.90
59041;DHT22;44825;53.200;6.448;2022-11-03T05:32:48;11.60;99.90
59041;DHT22;44825;53.200;6.448;2022-11-03T05:35:16;11.70;99.90
59041;DHT22;44825;53.200;6.448;2022-11-03T05:37:44;11.70;99.90
59041;DHT22;44825;53.200;6.448;2022-11-03T05:40:13;11.70;99.90
59041;DHT22;44825;53.200;6.448;2022-11-03T05:42:41;11.70;99.90
59041;DHT22;44825;53.200;6.448;2022-11-03T05:45:13;11.70;99.90
59041;DHT22;44825;53.200;6.448;2022-11-03T05:47:41;11.70;99.90
59041;DHT22;44825;53.200;6.448;2022-11-03T05:50:17;11.70;99.90
59041;DHT22;44825;53.200;6.448;2022-11-03T05:52:44;11.70;99.90
59041;DHT22;44825;53.200;6.448;2022-11-03T05:55:23;11.70;99.90
59041;DHT22;44825;53.200;6.448;2022-11-03T05:57:51;11.70;99.90
59041;DHT22;44825;53.200;6.448;2022-11-03T06:00:21;11.70;99.90
59041;DHT22;44825;53.200;6.448;2022-11-03T06:02:50;11.70;99.90
59041;DHT22;44825;53.200;6.448;2022-11-03T06:05:19;11.70;99.90
59041;DHT22;44825;53.200;6.448;2022-11-03T06:07:46;11.80;99.90
59041;DHT22;44825;53.200;6.448;2022-11-03T06:10:18;11.70;99.90
59041;DHT22;44825;53.200;6.448;2022-11-03T06:12:46;11.70;99.90
59041;DHT22;44825;53.200;6.448;2022-11-03T06:15:19;11.70;99.90
59041;DHT22;44825;53.200;6.448;2022-11-03T06:17:49;11.70;99.90
59041;DHT22;44825;53.200;6.448;2022-11-03T06:20:19;11.70;99.90
59041;DHT22;44825;53.200;6.448;2022-11-03T06:22:46;11.70;99.90
59041;DHT22;44825;53.200;6.448;2022-11-03T06:25:16;11.70;99.90
59041;DHT22;44825;53.200;6.448;2022-11-03T06:27:46;11.70;99.90
59041;DHT22;44825;53.200;6.448;2022-11-03T06:30:18;11.60;99.90
59041;DHT22;44825;53.200;6.448;2022-11-03T06:32:45;11.70;99.90
59041;DHT22;44825;53.200;6.448;2022-11-03T06:35:12;11.70;99.90
59041;DHT22;44825;53.200;6.448;2022-11-03T06:37:41;11.70;99.90
59041;DHT22;44825;53.200;6.448;2022-11-03T06:42:50;11.70;99.90
59041;DHT22;44825;53.200;6.448;2022-11-03T06:45:18;11.70;99.90
59041;DHT22;44825;53.200;6.448;2022-11-03T06:47:45;11.70;99.90
59041;DHT22;44825;53.200;6.448;2022-11-03T06:50:18;11.70;99.90
59041;DHT22;44825;53.200;6.448;2022-11-03T06:52:47;11.70;99.90
59041;DHT22;44825;53.200;6.448;2022-11-03T06:55:20;11.70;99.90
59041;DHT22;44825;53.200;6.448;2022-11-03T06:57:47;11.70;99.90
59041;DHT22;44825;53.200;6.448;2022-11-03T07:00:18;11.70;99.90
59041;DHT22;44825;53.200;6.448;2022-11-03T07:02:56;11.70;99.90
59041;DHT22;44825;53.200;6.448;2022-11-03T07:05:26;11.70;99.90
59041;DHT22;44825;53.200;6.448;2022-11-03T07:07:55;11.70;99.90
59041;DHT22;44825;53.200;6.448;2022-11-03T07:10:23;11.70;99.90
59041;DHT22;44825;53.200;6.448;2022-11-03T07:12:50;11.80;99.90
59041;DHT22;44825;53.200;6.448;2022-11-03T07:15:19;11.80;99.90
59041;DHT22;44825;53.200;6.448;2022-11-03T07:17:48;11.80;99.90
59041;DHT22;44825;53.200;6.448;2022-11-03T07:20:15;11.80;99.90
59041;DHT22;44825;53.200;6.448;2022-11-03T07:22:42;11.80;99.90
59041;DHT22;44825;53.200;6.448;2022-11-03T07:25:12;11.80;99.90
59041;DHT22;44825;53.200;6.448;2022-11-03T07:27:39;11.80;99.90
59041;DHT22;44825;53.200;6.448;2022-11-03T07:30:11;11.90;99.90
59041;DHT22;44825;53.200;6.448;2022-11-03T07:32:39;11.90;99.90
59041;DHT22;44825;53.200;6.448;2022-11-03T07:35:14;11.90;99.90
59041;DHT22;44825;53.200;6.448;2022-11-03T07:37:43;11.90;99.90
59041;DHT22;44825;53.200;6.448;2022-11-03T07:40:13;12.00;99.90
59041;DHT22;44825;53.200;6.448;2022-11-03T07:42:42;11.90;99.90
59041;DHT22;44825;53.200;6.448;2022-11-03T07:45:21;11.90;99.90
59041;DHT22;44825;53.200;6.448;2022-11-03T07:47:56;12.00;99.90
59041;DHT22;44825;53.200;6.448;2022-11-03T07:50:23;12.00;99.90
59041;DHT22;44825;53.200;6.448;2022-11-03T07:52:50;12.10;99.90
59041;DHT22;44825;53.200;6.448;2022-11-03T07:55:26;12.10;99.90
59041;DHT22;44825;53.200;6.448;2022-11-03T07:57:58;12.10;99.90
59041;DHT22;44825;53.200;6.448;2022-11-03T08:00:24;12.10;99.90
59041;DHT22;44825;53.200;6.448;2022-11-03T08:02:52;12.10;99.90
59041;DHT22;44825;53.200;6.448;2022-11-03T08:05:21;12.20;99.90
59041;DHT22;44825;53.200;6.448;2022-11-03T08:07:51;12.20;99.90
59041;DHT22;44825;53.200;6.448;2022-11-03T08:10:19;12.20;99.90
59041;DHT22;44825;53.200;6.448;2022-11-03T08:12:46;12.20;99.90
59041;DHT22;44825;53.200;6.448;2022-11-03T08:15:13;12.30;99.90
59041;DHT22;44825;53.200;6.448;2022-11-03T08:17:43;12.30;99.90
59041;DHT22;44825;53.200;6.448;2022-11-03T08:20:10;12.30;99.90
59041;DHT22;44825;53.200;6.448;2022-11-03T08:22:44;12.30;99.90
59041;DHT22;44825;53.200;6.448;2022-11-03T08:25:12;12.30;99.90
59041;DHT22;44825;53.200;6.448;2022-11-03T08:27:40;12.40;99.90
59041;DHT22;44825;53.200;6.448;2022-11-03T08:30:07;12.50;99.90
59041;DHT22;44825;53.200;6.448;2022-11-03T08:32:34;12.50;99.90
59041;DHT22;44825;53.200;6.448;2022-11-03T08:35:01;12.60;99.90
59041;DHT22;44825;53.200;6.448;2022-11-03T08:37:28;12.70;99.90
59041;DHT22;44825;53.200;6.448;2022-11-03T08:39:54;12.80;99.90
59041;DHT22;44825;53.200;6.448;2022-11-03T08:42:21;12.80;99.90
59041;DHT22;44825;53.200;6.448;2022-11-03T08:44:49;12.90;99.90
59041;DHT22;44825;53.200;6.448;2022-11-03T08:47:16;13.00;99.90
59041;DHT22;44825;53.200;6.448;2022-11-03T08:49:42;13.00;99.90
59041;DHT22;44825;53.200;6.448;2022-11-03T08:52:09;13.10;99.90
59041;DHT22;44825;53.200;6.448;2022-11-03T08:54:36;13.10;99.90
59041;DHT22;44825;53.200;6.448;2022-11-03T08:57:03;13.10;99.90
59041;DHT22;44825;53.200;6.448;2022-11-03T08:59:29;13.20;99.90
59041;DHT22;44825;53.200;6.448;2022-11-03T09:01:57;13.20;99.90
59041;DHT22;44825;53.200;6.448;2022-11-03T09:04:24;13.20;99.90
59041;DHT22;44825;53.200;6.448;2022-11-03T09:06:51;13.20;99.90
59041;DHT22;44825;53.200;6.448;2022-11-03T09:09:17;13.30;99.90
59041;DHT22;44825;53.200;6.448;2022-11-03T09:11:45;13.20;99.90
59041;DHT22;44825;53.200;6.448;2022-11-03T09:14:12;13.30;99.90
59041;DHT22;44825;53.200;6.448;2022-11-03T09:16:38;13.20;99.90
59041;DHT22;44825;53.200;6.448;2022-11-03T09:19:07;13.30;99.90
59041;DHT22;44825;53.200;6.448;2022-11-03T09:21:33;13.30;99.90
59041;DHT22;44825;53.200;6.448;2022-11-03T09:24:00;13.30;99.90
59041;DHT22;44825;53.200;6.448;2022-11-03T09:26:26;13.30;99.90
59041;DHT22;44825;53.200;6.448;2022-11-03T09:28:53;13.30;99.90
59041;DHT22;44825;53.200;6.448;2022-11-03T09:31:20;13.40;99.90
59041;DHT22;44825;53.200;6.448;2022-11-03T09:33:47;13.40;99.90
59041;DHT22;44825;53.200;6.448;2022-11-03T09:36:15;13.40;99.90
59041;DHT22;44825;53.200;6.448;2022-11-03T09:38:42;13.40;99.90
59041;DHT22;44825;53.200;6.448;2022-11-03T09:41:09;13.40;99.90
59041;DHT22;44825;53.200;6.448;2022-11-03T09:43:42;13.50;99.90
59041;DHT22;44825;53.200;6.448;2022-11-03T09:46:08;13.50;99.90
59041;DHT22;44825;53.200;6.448;2022-11-03T09:48:35;13.50;99.90
59041;DHT22;44825;53.200;6.448;2022-11-03T09:51:02;13.50;99.90
59041;DHT22;44825;53.200;6.448;2022-11-03T09:53:30;13.60;99.90
59041;DHT22;44825;53.200;6.448;2022-11-03T09:55:56;13.60;99.90
59041;DHT22;44825;53.200;6.448;2022-11-03T09:58:23;13.70;99.90
59041;DHT22;44825;53.200;6.448;2022-11-03T10:00:50;13.70;99.90
59041;DHT22;44825;53.200;6.448;2022-11-03T10:03:16;13.80;99.90
59041;DHT22;44825;53.200;6.448;2022-11-03T10:05:48;13.90;99.90
59041;DHT22;44825;53.200;6.448;2022-11-03T10:08:17;13.90;99.90
59041;DHT22;44825;53.200;6.448;2022-11-03T10:10:46;13.90;99.90
59041;DHT22;44825;53.200;6.448;2022-11-03T10:13:15;14.00;99.90
59041;DHT22;44825;53.200;6.448;2022-11-03T10:15:43;14.10;99.90
59041;DHT22;44825;53.200;6.448;2022-11-03T10:18:10;14.10;99.90
59041;DHT22;44825;53.200;6.448;2022-11-03T10:20:36;14.10;99.90
59041;DHT22;44825;53.200;6.448;2022-11-03T10:23:03;14.10;99.90
59041;DHT22;44825;53.200;6.448;2022-11-03T10:25:34;14.10;99.90
59041;DHT22;44825;53.200;6.448;2022-11-03T10:30:54;14.10;99.90
59041;DHT22;44825;53.200;6.448;2022-11-03T10:33:28;14.20;99.90
59041;DHT22;44825;53.200;6.448;2022-11-03T10:35:56;14.20;99.90
59041;DHT22;44825;53.200;6.448;2022-11-03T10:38:24;14.20;99.90
59041;DHT22;44825;53.200;6.448;2022-11-03T10:40:53;14.20;99.90
59041;DHT22;44825;53.200;6.448;2022-11-03T10:43:20;14.20;99.90
59041;DHT22;44825;53.200;6.448;2022-11-03T10:45:46;14.30;99.90
59041;DHT22;44825;53.200;6.448;2022-11-03T10:48:15;14.20;99.90
59041;DHT22;44825;53.200;6.448;2022-11-03T10:50:42;14.30;99.90
59041;DHT22;44825;53.200;6.448;2022-11-03T10:53:12;14.30;99.90
59041;DHT22;44825;53.200;6.448;2022-11-03T10:55:41;14.30;99.90
59041;DHT22;44825;53.200;6.448;2022-11-03T10:58:08;14.40;99.90
59041;DHT22;44825;53.200;6.448;2022-11-03T11:00:34;14.50;99.90
59041;DHT22;44825;53.200;6.448;2022-11-03T11:03:02;14.50;99.90
59041;DHT22;44825;53.200;6.448;2022-11-03T11:05:30;14.50;99.90
59041;DHT22;44825;53.200;6.448;2022-11-03T11:07:57;14.50;99.90
59041;DHT22;44825;53.200;6.448;2022-11-03T11:10:24;14.60;99.90
59041;DHT22;44825;53.200;6.448;2022-11-03T11:13:04;14.60;99.90
59041;DHT22;44825;53.200;6.448;2022-11-03T11:15:36;14.60;99.90
59041;DHT22;44825;53.200;6.448;2022-11-03T11:18:03;14.70;99.90
59041;DHT22;44825;53.200;6.448;2022-11-03T11:20:35;14.80;99.90
59041;DHT22;44825;53.200;6.448;2022-11-03T11:26:12;15.00;99.90
59041;DHT22;44825;53.200;6.448;2022-11-03T11:28:40;15.00;99.90
59041;DHT22;44825;53.200;6.448;2022-11-03T11:36:34;15.10;99.90
59041;DHT22;44825;53.200;6.448;2022-11-03T11:39:02;15.20;99.90
59041;DHT22;44825;53.200;6.448;2022-11-03T11:46:59;15.20;99.90
59041;DHT22;44825;53.200;6.448;2022-11-03T11:49:26;15.20;99.90
59041;DHT22;44825;53.200;6.448;2022-11-03T11:51:54;15.20;99.90
59041;DHT22;44825;53.200;6.448;2022-11-03T11:54:26;15.20;99.90
59041;DHT22;44825;53.200;6.448;2022-11-03T11:56:53;15.20;99.90
59041;DHT22;44825;53.200;6.448;2022-11-03T11:59:20;15.20;99.90
59041;DHT22;44825;53.200;6.448;2022-11-03T12:01:48;15.20;99.90
59041;DHT22;44825;53.200;6.448;2022-11-03T12:04:17;15.20;99.90
59041;DHT22;44825;53.200;6.448;2022-11-03T12:06:44;15.20;99.90
59041;DHT22;44825;53.200;6.448;2022-11-03T12:09:16;15.20;99.90
59041;DHT22;44825;53.200;6.448;2022-11-03T12:11:43;15.20;99.90
59041;DHT22;44825;53.200;6.448;2022-11-03T12:14:23;15.20;99.90
59041;DHT22;44825;53.200;6.448;2022-11-03T12:16:50;15.20;99.90
59041;DHT22;44825;53.200;6.448;2022-11-03T12:19:33;15.20;99.90
59041;DHT22;44825;53.200;6.448;2022-11-03T12:22:00;15.20;99.90
59041;DHT22;44825;53.200;6.448;2022-11-03T12:24:36;15.20;99.90
59041;DHT22;44825;53.200;6.448;2022-11-03T12:27:14;15.20;99.90
59041;DHT22;44825;53.200;6.448;2022-11-03T12:29:44;15.20;99.90
59041;DHT22;44825;53.200;6.448;2022-11-03T12:32:11;15.20;99.90
59041;DHT22;44825;53.200;6.448;2022-11-03T12:34:38;15.20;99.90
59041;DHT22;44825;53.200;6.448;2022-11-03T12:37:04;15.10;99.90
59041;DHT22;44825;53.200;6.448;2022-11-03T12:39:31;15.10;99.90
59041;DHT22;44825;53.200;6.448;2022-11-03T12:41:59;15.10;99.90
59041;DHT22;44825;53.200;6.448;2022-11-03T12:44:26;15.10;99.90
59041;DHT22;44825;53.200;6.448;2022-11-03T12:46:53;15.10;99.90
59041;DHT22;44825;53.200;6.448;2022-11-03T12:49:19;15.10;99.90
59041;DHT22;44825;53.200;6.448;2022-11-03T12:51:46;15.10;99.90
59041;DHT22;44825;53.200;6.448;2022-11-03T12:54:13;15.10;99.90
59041;DHT22;44825;53.200;6.448;2022-11-03T12:56:39;15.10;99.90
59041;DHT22;44825;53.200;6.448;2022-11-03T12:59:07;15.10;99.90
59041;DHT22;44825;53.200;6.448;2022-11-03T13:01:34;15.10;99.40
59041;DHT22;44825;53.200;6.448;2022-11-03T13:04:01;15.10;99.60
59041;DHT22;44825;53.200;6.448;2022-11-03T13:06:30;15.10;99.30
59041;DHT22;44825;53.200;6.448;2022-11-03T13:08:56;15.10;99.30
59041;DHT22;44825;53.200;6.448;2022-11-03T13:11:23;15.10;99.50
59041;DHT22;44825;53.200;6.448;2022-11-03T13:14:08;15.10;99.00
59041;DHT22;44825;53.200;6.448;2022-11-03T13:16:34;15.10;99.30
59041;DHT22;44825;53.200;6.448;2022-11-03T13:19:01;15.20;99.10
59041;DHT22;44825;53.200;6.448;2022-11-03T13:21:28;15.20;98.70
59041;DHT22;44825;53.200;6.448;2022-11-03T13:23:55;15.20;99.10
59041;DHT22;44825;53.200;6.448;2022-11-03T13:26:24;15.20;99.10
59041;DHT22;44825;53.200;6.448;2022-11-03T13:28:51;15.20;98.70
59041;DHT22;44825;53.200;6.448;2022-11-03T13:31:19;15.20;98.10
59041;DHT22;44825;53.200;6.448;2022-11-03T13:33:46;15.20;98.60
59041;DHT22;44825;53.200;6.448;2022-11-03T13:36:12;15.20;98.30
59041;DHT22;44825;53.200;6.448;2022-11-03T13:38:39;15.20;98.40
59041;DHT22;44825;53.200;6.448;2022-11-03T13:41:06;15.20;97.90
59041;DHT22;44825;53.200;6.448;2022-11-03T13:43:32;15.20;98.50
59041;DHT22;44825;53.200;6.448;2022-11-03T13:45:59;15.20;98.20
59041;DHT22;44825;53.200;6.448;2022-11-03T13:48:28;15.10;98.10
59041;DHT22;44825;53.200;6.448;2022-11-03T13:50:54;15.10;98.30
59041;DHT22;44825;53.200;6.448;2022-11-03T13:53:21;15.10;98.40
59041;DHT22;44825;53.200;6.448;2022-11-03T13:55:48;15.10;98.70
59041;DHT22;44825;53.200;6.448;2022-11-03T13:58:15;15.10;98.60
59041;DHT22;44825;53.200;6.448;2022-11-03T14:00:41;15.10;98.70
59041;DHT22;44825;53.200;6.448;2022-11-03T14:03:08;15.00;98.80
59041;DHT22;44825;53.200;6.448;2022-11-03T14:05:36;15.00;99.00
59041;DHT22;44825;53.200;6.448;2022-11-03T14:08:03;15.00;98.80
59041;DHT22;44825;53.200;6.448;2022-11-03T14:10:30;15.00;99.10
59041;DHT22;44825;53.200;6.448;2022-11-03T14:12:57;15.00;99.00
59041;DHT22;44825;53.200;6.448;2022-11-03T14:15:22;15.00;99.00
59041;DHT22;44825;53.200;6.448;2022-11-03T14:17:49;15.00;99.10
59041;DHT22;44825;53.200;6.448;2022-11-03T14:20:15;15.00;98.90
59041;DHT22;44825;53.200;6.448;2022-11-03T14:22:43;15.00;98.90
59041;DHT22;44825;53.200;6.448;2022-11-03T14:25:10;15.00;99.30
59041;DHT22;44825;53.200;6.448;2022-11-03T14:27:37;15.00;98.80
59041;DHT22;44825;53.200;6.448;2022-11-03T14:30:04;15.00;98.40
59041;DHT22;44825;53.200;6.448;2022-11-03T14:32:31;15.00;98.60
59041;DHT22;44825;53.200;6.448;2022-11-03T14:34:57;14.90;98.70
59041;DHT22;44825;53.200;6.448;2022-11-03T14:37:24;14.90;98.60
59041;DHT22;44825;53.200;6.448;2022-11-03T14:39:52;14.90;98.40
59041;DHT22;44825;53.200;6.448;2022-11-03T14:42:19;14.90;98.60
59041;DHT22;44825;53.200;6.448;2022-11-03T14:44:44;14.90;98.50
59041;DHT22;44825;53.200;6.448;2022-11-03T14:47:12;14.90;98.70
59041;DHT22;44825;53.200;6.448;2022-11-03T14:49:39;14.90;98.80
59041;DHT22;44825;53.200;6.448;2022-11-03T14:52:06;14.80;99.00
59041;DHT22;44825;53.200;6.448;2022-11-03T14:54:33;14.80;99.00
59041;DHT22;44825;53.200;6.448;2022-11-03T14:57:01;14.80;99.00
59041;DHT22;44825;53.200;6.448;2022-11-03T14:59:28;14.80;99.00
59041;DHT22;44825;53.200;6.448;2022-11-03T15:01:55;14.80;98.80
59041;DHT22;44825;53.200;6.448;2022-11-03T15:04:22;14.80;99.10
59041;DHT22;44825;53.200;6.448;2022-11-03T15:06:49;14.80;99.10
59041;DHT22;44825;53.200;6.448;2022-11-03T15:09:16;14.80;99.00
59041;DHT22;44825;53.200;6.448;2022-11-03T15:11:43;14.80;98.90
59041;DHT22;44825;53.200;6.448;2022-11-03T15:14:12;14.80;99.10
59041;DHT22;44825;53.200;6.448;2022-11-03T15:16:39;14.70;99.20
59041;DHT22;44825;53.200;6.448;2022-11-03T15:19:06;14.70;99.30
59041;DHT22;44825;53.200;6.448;2022-11-03T15:21:33;14.70;99.40
59041;DHT22;44825;53.200;6.448;2022-11-03T15:24:00;14.70;99.50
59041;DHT22;44825;53.200;6.448;2022-11-03T15:26:27;14.70;99.50
59041;DHT22;44825;53.200;6.448;2022-11-03T15:28:53;14.60;99.60
59041;DHT22;44825;53.200;6.448;2022-11-03T15:31:21;14.60;99.60
59041;DHT22;44825;53.200;6.448;2022-11-03T15:33:49;14.60;99.80
59041;DHT22;44825;53.200;6.448;2022-11-03T15:36:16;14.50;99.60
59041;DHT22;44825;53.200;6.448;2022-11-03T15:38:43;14.50;99.60
59041;DHT22;44825;53.200;6.448;2022-11-03T15:41:09;14.50;99.70
59041;DHT22;44825;53.200;6.448;2022-11-03T15:43:42;14.50;99.60
59041;DHT22;44825;53.200;6.448;2022-11-03T15:46:09;14.40;99.70
59041;DHT22;44825;53.200;6.448;2022-11-03T15:48:37;14.40;99.50
59041;DHT22;44825;53.200;6.448;2022-11-03T15:51:04;14.40;99.50
59041;DHT22;44825;53.200;6.448;2022-11-03T15:53:31;14.40;99.50
59041;DHT22;44825;53.200;6.448;2022-11-03T15:55:57;14.40;99.30
59041;DHT22;44825;53.200;6.448;2022-11-03T15:58:24;14.40;99.20
59041;DHT22;44825;53.200;6.448;2022-11-03T16:00:51;14.40;99.40